createdAt,value
2019-01-21T00:01:14.174Z,95713.76
2019-01-21T00:04:02.478Z,95713.76
2019-01-21T00:06:51.284Z,95717.33
2019-01-21T00:09:40.172Z,95714.36
2019-01-21T00:12:28.907Z,95713.08
2019-01-21T00:15:17.685Z,95713.08
2019-01-21T00:18:08.077Z,95720.34
2019-01-21T00:20:56.744Z,95713.41
2019-01-21T00:23:44.856Z,95715.20
2019-01-21T00:26:33.339Z,95712.96
2019-01-21T00:29:22.649Z,95714.80
2019-01-21T00:32:11.397Z,95715.45
2019-01-21T00:35:00.058Z,95711.50
2019-01-21T00:37:48.531Z,95711.50
2019-01-21T00:40:37.580Z,95717.58
2019-01-21T00:43:26.147Z,95705.13
2019-01-21T00:46:15.287Z,95713.08
2019-01-21T00:49:03.746Z,95705.24
2019-01-21T00:51:55.953Z,95707.89
2019-01-21T00:54:44.535Z,95700.98
2019-01-21T00:57:33.350Z,95700.98
2019-01-21T01:00:25.103Z,95707.61
2019-01-21T01:03:19.318Z,95713.92
2019-01-21T01:06:09.356Z,95718.87
2019-01-21T01:08:58.740Z,95718.96
2019-01-21T01:11:49.954Z,95718.96
2019-01-21T01:14:38.562Z,95719.06
2019-01-21T01:17:26.891Z,95716.74
2019-01-21T01:20:21.420Z,95717.81
2019-01-21T01:23:10.402Z,95717.78
2019-01-21T01:25:59.434Z,95719.62
2019-01-21T01:28:48.712Z,95718.89
2019-01-21T01:31:37.161Z,95713.42
2019-01-21T01:34:25.379Z,95719.30
2019-01-21T01:37:13.521Z,95712.61
2019-01-21T01:40:02.242Z,95716.09
2019-01-21T01:42:51.323Z,95710.48
2019-01-21T01:45:40.004Z,95712.01
2019-01-21T01:48:29.170Z,95715.59
2019-01-21T01:51:17.885Z,95717.07
2019-01-21T01:54:06.613Z,95717.07
2019-01-21T01:56:56.138Z,95714.26
2019-01-21T01:59:45.067Z,95714.26
2019-01-21T02:02:33.845Z,95717.16
2019-01-21T02:05:23.930Z,95712.19
2019-01-21T02:08:12.873Z,95714.61
2019-01-21T02:11:02.932Z,95715.33
2019-01-21T02:13:51.279Z,95712.59
2019-01-21T02:16:39.837Z,95709.23
2019-01-21T02:19:29.768Z,95705.43
2019-01-21T02:22:21.364Z,95707.61
2019-01-21T02:25:10.729Z,95715.25
2019-01-21T02:28:18.219Z,95710.44
2019-01-21T02:31:46.632Z,95707.00
2019-01-21T02:35:14.008Z,95707.00
2019-01-21T02:38:39.931Z,95714.59
2019-01-21T02:41:55.498Z,95713.61
2019-01-21T02:45:20.624Z,95713.61
2019-01-21T02:48:42.957Z,95715.24
2019-01-21T02:52:11.909Z,95718.55
2019-01-21T02:55:13.540Z,95712.49
2019-01-21T02:58:15.666Z,95703.38
2019-01-21T03:01:27.972Z,95709.06
2019-01-21T03:04:41.896Z,95704.38
2019-01-21T03:07:52.390Z,95704.38
2019-01-21T03:10:54.952Z,95699.25
2019-01-21T03:13:58.464Z,95698.59
2019-01-21T03:17:11.277Z,95700.88
2019-01-21T03:20:52.809Z,95697.86
2019-01-21T03:24:21.971Z,95701.20
2019-01-21T03:27:47.375Z,95701.19
2019-01-21T03:30:56.788Z,95706.89
2019-01-21T03:34:31.414Z,95702.83
2019-01-21T03:37:58.296Z,95703.66
2019-01-21T03:41:01.324Z,95704.08
2019-01-21T03:44:43.089Z,95698.62
2019-01-21T03:47:46.806Z,95703.72
2019-01-21T03:51:12.129Z,95708.98
2019-01-21T03:54:11.901Z,95704.50
2019-01-21T03:57:13.605Z,95701.75
2019-01-21T04:00:29.798Z,95706.79
2019-01-21T04:03:51.071Z,95704.38
2019-01-21T04:07:17.524Z,95704.38
2019-01-21T04:10:41.918Z,95701.30
2019-01-21T04:14:02.283Z,95702.31
2019-01-21T04:17:34.877Z,95707.64
2019-01-21T04:21:25.082Z,95706.44
2019-01-21T04:24:57.805Z,95706.44
2019-01-21T04:28:32.955Z,95698.83
2019-01-21T04:31:57.653Z,95698.83
2019-01-21T04:35:26.628Z,95705.67
2019-01-21T04:38:51.661Z,95703.73
2019-01-21T04:42:05.829Z,95709.34
2019-01-21T04:45:37.119Z,95705.93
2019-01-21T04:48:59.575Z,95714.97
2019-01-21T04:52:20.995Z,95712.06
2019-01-21T04:55:39.528Z,95712.06
2019-01-21T04:58:57.059Z,95710.44
2019-01-21T05:02:39.941Z,95712.25
2019-01-21T05:05:51.414Z,95720.33
2019-01-21T05:09:14.616Z,95714.26
2019-01-21T05:12:39.002Z,95714.26
2019-01-21T05:15:59.463Z,95723.30
2019-01-21T05:19:31.137Z,95725.32
2019-01-21T05:22:40.931Z,95725.16
2019-01-21T05:25:41.806Z,95727.11
2019-01-21T05:29:05.938Z,95730.61
2019-01-21T05:32:42.291Z,95730.21
2019-01-21T05:36:16.745Z,95730.20
2019-01-21T05:39:39.362Z,95730.45
2019-01-21T05:43:10.492Z,95737.79
2019-01-21T05:46:37.967Z,95733.95
2019-01-21T05:50:03.318Z,95729.02
2019-01-21T05:53:37.781Z,95745.22
2019-01-21T05:57:08.129Z,95739.72
2019-01-21T06:00:55.827Z,95748.22
2019-01-21T06:04:14.744Z,95754.87
2019-01-21T06:07:44.808Z,95753.78
2019-01-21T06:10:52.624Z,95752.84
2019-01-21T06:13:54.399Z,95762.13
2019-01-21T06:17:02.388Z,95762.13
2019-01-21T06:20:13.592Z,95765.64
2019-01-21T06:23:38.524Z,95771.02
2019-01-21T06:27:04.190Z,95770.42
2019-01-21T06:30:36.299Z,95763.70
2019-01-21T06:34:09.528Z,95760.53
2019-01-21T06:37:38.629Z,95761.31
2019-01-21T06:41:04.422Z,95770.46
2019-01-21T06:44:32.538Z,95772.97
2019-01-21T06:47:51.322Z,95766.69
2019-01-21T06:51:18.734Z,95774.84
2019-01-21T06:54:30.119Z,95773.38
2019-01-21T06:57:47.015Z,95776.27
2019-01-21T07:01:15.080Z,95783.53
2019-01-21T07:04:50.443Z,95782.87
2019-01-21T07:08:14.749Z,95779.27
2019-01-21T07:11:47.506Z,95788.45
2019-01-21T07:15:20.251Z,95794.64
2019-01-21T07:18:48.778Z,95791.54
2019-01-21T07:22:21.013Z,95791.54
2019-01-21T07:26:08.274Z,95799.45
2019-01-21T07:29:22.792Z,95800.84
2019-01-21T07:33:01.136Z,95799.27
2019-01-21T07:36:22.225Z,95806.31
2019-01-21T07:39:38.343Z,95799.17
2019-01-21T07:42:48.299Z,95810.88
2019-01-21T07:45:59.048Z,95809.26
2019-01-21T07:49:21.537Z,95805.30
2019-01-21T07:53:01.603Z,95807.28
2019-01-21T07:56:05.790Z,95807.28
2019-01-21T07:59:22.105Z,95806.97
2019-01-21T08:02:37.128Z,95806.97
2019-01-21T08:05:57.179Z,95811.46
2019-01-21T08:09:05.998Z,95811.46
2019-01-21T08:12:33.382Z,95807.27
2019-01-21T08:16:02.473Z,95814.41
2019-01-21T08:19:02.265Z,95817.86
2019-01-21T08:22:26.670Z,95811.66
2019-01-21T08:25:45.115Z,95823.67
2019-01-21T08:29:18.013Z,95816.81
2019-01-21T08:32:36.871Z,95829.42
2019-01-21T08:35:33.204Z,95828.61
2019-01-21T08:39:03.068Z,95825.70
2019-01-21T08:42:24.468Z,95821.64
2019-01-21T08:45:32.430Z,95829.28
2019-01-21T08:49:01.039Z,95834.63
2019-01-21T08:52:24.441Z,95827.43
2019-01-21T08:55:57.300Z,95828.41
2019-01-21T08:59:29.990Z,95832.28
2019-01-21T09:02:52.295Z,95825.77
2019-01-21T09:06:18.662Z,95825.77
2019-01-21T09:09:35.213Z,95834.33
2019-01-21T09:12:59.249Z,95832.52
2019-01-21T09:16:06.114Z,95826.34
2019-01-21T09:19:12.513Z,95830.55
2019-01-21T09:22:07.340Z,95832.06
2019-01-21T09:25:05.263Z,95826.80
2019-01-21T09:28:13.068Z,95830.47
2019-01-21T09:31:38.999Z,95833.73
2019-01-21T09:34:47.977Z,95833.73
2019-01-21T09:38:33.472Z,95839.26
2019-01-21T09:41:59.248Z,95841.94
2019-01-21T09:45:06.239Z,95840.77
2019-01-21T09:47:53.240Z,95844.35
2019-01-21T09:50:43.662Z,95842.05
2019-01-21T09:53:32.587Z,95843.69
2019-01-21T09:56:22.800Z,95846.24
2019-01-21T09:59:12.389Z,95847.83
2019-01-21T10:02:03.686Z,95847.83
2019-01-21T10:05:01.863Z,95841.34
2019-01-21T10:08:06.274Z,95839.68
2019-01-21T10:11:25.450Z,95832.17
2019-01-21T10:14:35.299Z,95832.17
2019-01-21T10:17:54.877Z,95827.54
2019-01-21T10:21:14.778Z,95831.27
2019-01-21T10:24:27.676Z,95831.27
2019-01-21T10:27:58.284Z,95829.38
2019-01-21T10:31:39.879Z,95833.36
2019-01-21T10:35:04.649Z,95833.36
2019-01-21T10:38:29.055Z,95819.78
2019-01-21T10:41:31.873Z,95819.78
2019-01-21T10:44:52.078Z,95816.48
2019-01-21T10:48:25.999Z,95803.08
2019-01-21T10:51:31.981Z,95803.08
2019-01-21T10:54:29.209Z,95802.77
2019-01-21T10:57:48.292Z,95799.06
2019-01-21T11:01:35.892Z,95802.92
2019-01-21T11:04:47.088Z,95808.43
2019-01-21T11:07:57.603Z,95795.14
2019-01-21T11:11:09.986Z,95795.14
2019-01-21T11:14:35.366Z,95794.83
2019-01-21T11:17:41.235Z,95794.83
2019-01-21T11:21:01.221Z,95795.48
2019-01-21T11:24:30.954Z,95790.22
2019-01-21T11:28:19.420Z,95779.07
2019-01-21T11:31:58.330Z,95783.91
2019-01-21T11:35:19.121Z,95774.89
2019-01-21T11:38:34.634Z,95774.67
2019-01-21T11:41:41.020Z,95771.06
2019-01-21T11:44:56.097Z,95771.06
2019-01-21T11:48:17.982Z,95765.67
2019-01-21T11:52:18.239Z,95761.15
2019-01-21T11:55:48.218Z,95763.48
2019-01-21T11:59:02.312Z,95756.56
2019-01-21T12:02:35.002Z,95766.27
2019-01-21T12:05:37.158Z,95771.66
2019-01-21T12:09:31.077Z,95769.56
2019-01-21T12:12:39.836Z,95766.88
2019-01-21T12:15:47.298Z,95759.95
2019-01-21T12:19:00.155Z,95759.95
2019-01-21T12:22:19.061Z,95757.09
2019-01-21T12:25:20.314Z,95743.91
2019-01-21T12:28:41.247Z,95743.91
2019-01-21T12:31:42.953Z,95754.75
2019-01-21T12:35:14.615Z,95748.37
2019-01-21T12:38:23.975Z,95751.68
2019-01-21T12:41:29.275Z,95740.37
2019-01-21T12:44:53.401Z,95751.95
2019-01-21T12:47:56.808Z,95751.95
2019-01-21T12:51:08.500Z,95745.64
2019-01-21T12:54:31.258Z,95745.64
2019-01-21T12:57:45.874Z,95746.27
2019-01-21T13:01:11.724Z,95747.59
2019-01-21T13:04:12.150Z,95730.02
2019-01-21T13:07:37.636Z,95733.16
2019-01-21T13:10:54.493Z,95735.25
2019-01-21T13:14:19.126Z,95724.23
2019-01-21T13:17:54.716Z,95727.23
2019-01-21T13:21:34.844Z,95728.85
2019-01-21T13:25:13.474Z,95728.34
2019-01-21T13:28:39.580Z,95728.34
2019-01-21T13:32:22.242Z,95728.86
2019-01-21T13:35:39.417Z,95726.95
2019-01-21T13:39:28.474Z,95726.95
2019-01-21T13:42:39.877Z,95719.28
2019-01-21T13:46:09.446Z,95720.33
2019-01-21T13:49:15.444Z,95707.85
2019-01-21T13:53:09.753Z,95711.56
2019-01-21T13:56:23.976Z,95711.69
2019-01-21T13:59:48.361Z,95713.30
2019-01-21T14:03:09.498Z,95713.30
2019-01-21T14:06:54.308Z,95706.41
2019-01-21T14:10:34.321Z,95712.69
2019-01-21T14:14:13.058Z,95718.80
2019-01-21T14:17:31.883Z,95713.70
2019-01-21T14:20:43.736Z,95713.70
2019-01-21T14:23:59.839Z,95716.73
2019-01-21T14:27:04.574Z,95717.83
2019-01-21T14:30:25.773Z,95718.53
2019-01-21T14:33:34.512Z,95718.53
2019-01-21T14:37:06.029Z,95716.84
2019-01-21T14:40:09.465Z,95713.38
2019-01-21T14:43:54.822Z,95723.81
2019-01-21T14:47:19.619Z,95721.70
2019-01-21T14:50:50.486Z,95722.63
2019-01-21T14:54:21.659Z,95715.27
2019-01-21T14:57:50.534Z,95720.84
2019-01-21T15:01:19.240Z,95720.84
2019-01-21T15:04:50.581Z,95726.11
2019-01-21T15:08:08.382Z,95726.11
2019-01-21T15:11:14.480Z,95708.58
2019-01-21T15:14:30.188Z,95725.74
2019-01-21T15:18:19.197Z,95725.74
2019-01-21T15:21:36.299Z,95715.05
2019-01-21T15:25:08.986Z,95726.07
2019-01-21T15:28:42.368Z,95715.48
2019-01-21T15:32:21.561Z,95718.79
2019-01-21T15:35:53.389Z,95717.95
2019-01-21T15:39:22.354Z,95724.81
2019-01-21T15:42:37.821Z,95724.81
2019-01-21T15:45:59.627Z,95730.58
2019-01-21T15:49:13.047Z,95722.48
2019-01-21T15:52:27.227Z,95716.77
2019-01-21T15:55:44.253Z,95726.75
2019-01-21T15:58:51.351Z,95727.73
2019-01-21T16:02:19.600Z,95727.73
2019-01-21T16:05:42.800Z,95723.55
2019-01-21T16:09:10.968Z,95723.41
2019-01-21T16:12:20.419Z,95711.37
2019-01-21T16:15:24.921Z,95712.94
2019-01-21T16:18:34.732Z,95715.22
2019-01-21T16:21:39.263Z,95716.70
2019-01-21T16:25:07.581Z,95716.55
2019-01-21T16:28:40.864Z,95718.98
2019-01-21T16:31:57.307Z,95713.64
2019-01-21T16:35:19.330Z,95713.64
2019-01-21T16:38:22.199Z,95708.38
2019-01-21T16:41:51.259Z,95715.84
2019-01-21T16:44:39.712Z,95718.58
2019-01-21T16:47:28.922Z,95715.63
2019-01-21T16:50:17.369Z,95715.52
2019-01-21T16:53:06.624Z,95715.52
2019-01-21T16:55:55.812Z,95714.34
2019-01-21T16:58:44.866Z,95714.34
2019-01-21T17:01:34.863Z,95713.83
2019-01-21T17:04:24.388Z,95713.83
2019-01-21T17:07:13.505Z,95720.38
2019-01-21T17:10:01.931Z,95714.56
2019-01-21T17:12:50.671Z,95715.03
2019-01-21T17:15:39.914Z,95721.45
2019-01-21T17:18:28.920Z,95715.11
2019-01-21T17:21:18.040Z,95715.11
2019-01-21T17:24:06.239Z,95705.69
2019-01-21T17:26:54.916Z,95711.39
2019-01-21T17:29:43.578Z,95709.66
2019-01-21T17:32:32.705Z,95709.92
2019-01-21T17:35:21.990Z,95709.92
2019-01-21T17:38:10.488Z,95707.38
2019-01-21T17:40:59.218Z,95693.07
2019-01-21T17:43:48.089Z,95707.73
2019-01-21T17:46:36.952Z,95706.12
2019-01-21T17:49:25.664Z,95695.21
2019-01-21T17:52:16.529Z,95695.21
2019-01-21T17:55:05.196Z,95699.96
2019-01-21T17:57:55.309Z,95699.96
2019-01-21T18:00:44.816Z,95696.81
2019-01-21T18:03:33.678Z,95704.84
2019-01-21T18:06:22.602Z,95692.55
2019-01-21T18:09:13.934Z,95684.55
2019-01-21T18:12:04.465Z,95684.55
2019-01-21T18:14:57.123Z,95681.00
2019-01-21T18:17:46.323Z,95681.00
2019-01-21T18:20:58.678Z,95684.67
2019-01-21T18:23:55.889Z,95684.67
2019-01-21T18:26:44.392Z,95690.12
2019-01-21T18:29:33.287Z,95696.17
2019-01-21T18:32:21.913Z,95694.95
2019-01-21T18:35:12.106Z,95689.01
2019-01-21T18:38:00.886Z,95689.01
2019-01-21T18:40:54.997Z,95691.45
2019-01-21T18:43:44.097Z,95691.45
2019-01-21T18:46:35.264Z,95698.98
2019-01-21T18:49:24.698Z,95703.80
2019-01-21T18:52:14.633Z,95703.80
2019-01-21T18:55:04.098Z,95696.22
2019-01-21T18:57:56.025Z,95696.22
2019-01-21T19:00:44.570Z,95682.17
2019-01-21T19:03:34.878Z,95686.02
2019-01-21T19:06:24.447Z,95686.02
2019-01-21T19:09:14.248Z,95671.73
2019-01-21T19:12:03.716Z,95678.13
2019-01-21T19:14:52.617Z,95678.13
2019-01-21T19:17:41.092Z,95678.02
2019-01-21T19:20:31.252Z,95678.02
2019-01-21T19:23:21.082Z,95677.16
2019-01-21T19:26:09.529Z,95689.11
2019-01-21T19:29:02.193Z,95689.11
2019-01-21T19:31:52.860Z,95683.42
2019-01-21T19:34:53.339Z,95672.08
2019-01-21T19:37:42.631Z,95672.08
2019-01-21T19:40:32.171Z,95680.22
2019-01-21T19:43:21.479Z,95675.30
2019-01-21T19:46:10.551Z,95675.30
2019-01-21T19:48:58.883Z,95679.84
2019-01-21T19:51:47.861Z,95681.14
2019-01-21T19:54:35.857Z,95681.14
2019-01-21T19:57:24.376Z,95677.06
2019-01-21T20:00:16.913Z,95673.02
2019-01-21T20:03:06.461Z,95673.02
2019-01-21T20:05:55.147Z,95687.03
2019-01-21T20:08:44.985Z,95687.03
2019-01-21T20:11:35.452Z,95697.25
2019-01-21T20:14:31.369Z,95697.25
2019-01-21T20:17:20.620Z,95693.19
2019-01-21T20:20:15.830Z,95690.09
2019-01-21T20:23:05.076Z,95679.08
2019-01-21T20:25:54.252Z,95682.61
2019-01-21T20:28:43.470Z,95682.61
2019-01-21T20:31:32.209Z,95689.92
2019-01-21T20:34:21.256Z,95688.05
2019-01-21T20:37:11.269Z,95688.05
2019-01-21T20:40:00.886Z,95686.91
2019-01-21T20:42:49.742Z,95681.35
2019-01-21T20:45:38.416Z,95682.62
2019-01-21T20:48:26.711Z,95689.81
2019-01-21T20:51:15.671Z,95690.03
2019-01-21T20:54:03.618Z,95690.03
2019-01-21T20:56:52.145Z,95686.45
2019-01-21T20:59:41.428Z,95692.69
2019-01-21T21:02:30.689Z,95698.19
2019-01-21T21:05:19.947Z,95695.02
2019-01-21T21:08:14.896Z,95695.02
2019-01-21T21:11:05.260Z,95689.11
2019-01-21T21:13:55.939Z,95672.89
2019-01-21T21:17:05.265Z,95683.55
2019-01-21T21:19:55.037Z,95683.55
2019-01-21T21:22:49.939Z,95687.66
2019-01-21T21:29:06.980Z,95693.22
2019-01-21T21:31:56.614Z,95680.40
2019-01-21T21:34:45.354Z,95686.50
2019-01-21T21:37:40.451Z,95686.50
2019-01-21T21:40:30.293Z,95685.64
2019-01-21T21:43:19.417Z,95679.40
2019-01-21T21:46:19.816Z,95679.40
2019-01-21T21:49:08.323Z,95672.64
2019-01-21T21:51:57.466Z,95679.16
2019-01-21T21:54:46.657Z,95671.29
2019-01-21T21:57:35.498Z,95678.13
2019-01-21T22:00:25.185Z,95665.52
2019-01-21T22:03:14.515Z,95665.52
2019-01-21T22:06:04.430Z,95663.75
2019-01-21T22:08:53.598Z,95663.75
2019-01-21T22:11:43.814Z,95665.97
2019-01-21T22:14:33.046Z,95665.97
2019-01-21T22:17:22.136Z,95668.39
2019-01-21T22:20:16.099Z,95667.14
2019-01-21T22:23:04.533Z,95662.94
2019-01-21T22:25:53.137Z,95662.09
2019-01-21T22:28:42.235Z,95666.98
2019-01-21T22:31:31.446Z,95663.20
2019-01-21T22:34:20.953Z,95663.42
2019-01-21T22:37:09.674Z,95657.92
2019-01-21T22:40:00.386Z,95662.84
2019-01-21T22:42:48.603Z,95662.84
2019-01-21T22:45:36.967Z,95656.94
2019-01-21T22:48:26.574Z,95649.99
2019-01-21T22:51:16.272Z,95649.99
2019-01-21T22:54:04.838Z,95647.04
2019-01-21T22:56:53.563Z,95655.05
2019-01-21T22:59:42.287Z,95651.44
2019-01-21T23:02:31.182Z,95652.95
2019-01-21T23:05:20.012Z,95651.79
2019-01-21T23:08:08.366Z,95645.77
2019-01-21T23:10:57.664Z,95644.49
2019-01-21T23:13:46.661Z,95639.84
2019-01-21T23:16:36.595Z,95638.82
2019-01-21T23:19:26.235Z,95648.02
2019-01-21T23:22:14.634Z,95648.02
2019-01-21T23:25:04.517Z,95641.94
2019-01-21T23:27:53.588Z,95641.94
2019-01-21T23:30:42.522Z,95641.13
2019-01-21T23:33:31.894Z,95636.73
2019-01-21T23:36:21.146Z,95634.40
2019-01-21T23:39:10.677Z,95635.19
2019-01-21T23:41:59.785Z,95634.34
2019-01-21T23:44:48.351Z,95634.34
2019-01-21T23:47:36.979Z,95626.42
2019-01-21T23:50:26.465Z,95626.42
2019-01-21T23:53:16.207Z,95629.33
2019-01-21T23:56:04.602Z,95622.84
2019-01-21T23:58:53.636Z,95627.59
